createdAt,value
2019-01-21T00:00:06.447Z,102292.77
2019-01-21T00:02:35.535Z,102292.08
2019-01-21T00:05:05.160Z,102295.22
2019-01-21T00:07:34.225Z,102292.89
2019-01-21T00:10:03.960Z,102292.64
2019-01-21T00:12:33.040Z,102292.02
2019-01-21T00:15:02.065Z,102282.66
2019-01-21T00:17:31.129Z,102271.59
2019-01-21T00:20:00.206Z,102277.14
2019-01-21T00:22:29.238Z,102276.20
2019-01-21T00:24:58.268Z,102285.11
2019-01-21T00:27:27.351Z,102280.44
2019-01-21T00:29:56.381Z,102274.44
2019-01-21T00:32:25.402Z,102273.89
2019-01-21T00:34:54.627Z,102270.46
2019-01-21T00:37:23.647Z,102267.34
2019-01-21T00:39:52.670Z,102268.05
2019-01-21T00:42:21.727Z,102268.44
2019-01-21T00:44:50.786Z,102258.77
2019-01-21T00:47:19.807Z,102261.03
2019-01-21T00:49:48.869Z,102267.13
2019-01-21T00:52:17.898Z,102265.95
2019-01-21T00:54:46.967Z,102265.48
2019-01-21T00:57:15.989Z,102251.99
2019-01-21T00:59:45.009Z,102256.44
2019-01-21T01:02:14.107Z,102249.58
2019-01-21T01:04:44.507Z,102237.58
2019-01-21T01:07:13.575Z,102233.87
2019-01-21T01:09:42.599Z,102226.86
2019-01-21T01:12:11.998Z,102237.23
2019-01-21T01:14:41.035Z,102241.75
2019-01-21T01:17:10.059Z,102235.05
2019-01-21T01:19:39.047Z,102233.34
2019-01-21T01:22:08.110Z,102234.89
2019-01-21T01:24:37.054Z,102233.87
2019-01-21T01:27:06.112Z,102234.89
2019-01-21T01:29:35.189Z,102240.34
2019-01-21T01:32:04.250Z,102233.95
2019-01-21T01:34:33.337Z,102226.00
2019-01-21T01:37:02.389Z,102229.66
2019-01-21T01:39:31.409Z,102230.98
2019-01-21T01:42:00.486Z,102221.79
2019-01-21T01:44:29.801Z,102214.62
2019-01-21T01:46:58.853Z,102222.41
2019-01-21T01:49:27.919Z,102220.69
2019-01-21T01:51:56.979Z,102214.45
2019-01-21T01:54:25.999Z,102209.31
2019-01-21T01:56:55.339Z,102214.91
2019-01-21T01:59:24.371Z,102211.02
2019-01-21T02:01:53.622Z,102216.39
2019-01-21T02:04:22.686Z,102210.23
2019-01-21T02:06:51.909Z,102213.04
2019-01-21T02:09:21.367Z,102202.30
2019-01-21T02:11:50.382Z,102206.03
2019-01-21T02:14:19.406Z,102207.89
2019-01-21T02:16:48.471Z,102204.16
2019-01-21T02:19:19.141Z,102207.59
2019-01-21T02:21:48.989Z,102205.33
2019-01-21T02:24:18.013Z,102206.02
2019-01-21T02:26:58.093Z,102198.38
2019-01-21T02:29:49.642Z,102207.34
2019-01-21T02:33:18.611Z,102198.85
2019-01-21T02:36:24.617Z,102193.86
2019-01-21T02:39:22.551Z,102194.95
2019-01-21T02:42:16.174Z,102179.84
2019-01-21T02:45:29.411Z,102169.78
2019-01-21T02:48:34.040Z,102162.06
2019-01-21T02:51:28.461Z,102163.23
2019-01-21T02:54:40.722Z,102164.38
2019-01-21T02:57:38.879Z,102168.41
2019-01-21T03:00:42.753Z,102150.97
2019-01-21T03:03:25.990Z,102153.94
2019-01-21T03:06:16.903Z,102151.44
2019-01-21T03:09:23.267Z,102151.75
2019-01-21T03:12:26.496Z,102143.88
2019-01-21T03:15:11.522Z,102141.27
2019-01-21T03:18:28.687Z,102140.11
2019-01-21T03:21:48.196Z,102141.36
2019-01-21T03:25:01.026Z,102138.63
2019-01-21T03:28:02.679Z,102134.66
2019-01-21T03:31:09.149Z,102130.38
2019-01-21T03:34:16.958Z,102130.23
2019-01-21T03:37:14.000Z,102122.05
2019-01-21T03:40:26.492Z,102114.87
2019-01-21T03:43:31.144Z,102102.88
2019-01-21T03:46:47.004Z,102097.42
2019-01-21T03:49:25.085Z,102110.97
2019-01-21T03:52:39.462Z,102103.80
2019-01-21T03:55:12.683Z,102108.47
2019-01-21T03:58:05.627Z,102110.00
2019-01-21T04:01:04.849Z,102114.67
2019-01-21T04:03:56.625Z,102126.05
2019-01-21T04:06:51.891Z,102148.90
2019-01-21T04:09:57.961Z,102146.50
2019-01-21T04:12:47.635Z,102131.82
2019-01-21T04:16:09.891Z,102123.84
2019-01-21T04:19:10.722Z,102107.28
2019-01-21T04:22:08.182Z,102094.66
2019-01-21T04:25:20.419Z,102093.19
2019-01-21T04:28:17.062Z,102095.93
2019-01-21T04:31:21.671Z,102087.15
2019-01-21T04:34:22.633Z,102092.77
2019-01-21T04:37:29.845Z,102097.45
2019-01-21T04:40:33.768Z,102094.02
2019-01-21T04:43:33.325Z,102096.91
2019-01-21T04:46:23.921Z,102087.86
2019-01-21T04:49:22.810Z,102097.42
2019-01-21T04:52:19.781Z,102087.91
2019-01-21T04:55:25.379Z,102088.27
2019-01-21T04:58:31.330Z,102088.27
2019-01-21T05:01:49.265Z,102085.38
2019-01-21T05:04:52.843Z,102084.35
2019-01-21T05:07:50.964Z,102081.75
2019-01-21T05:10:33.491Z,102072.23
2019-01-21T05:13:42.753Z,102056.00
2019-01-21T05:16:44.464Z,102044.84
2019-01-21T05:20:06.262Z,102049.51
2019-01-21T05:23:25.595Z,102045.30
2019-01-21T05:26:18.779Z,102040.09
2019-01-21T05:28:59.923Z,102048.05
2019-01-21T05:31:50.658Z,102021.66
2019-01-21T05:35:06.706Z,102026.50
2019-01-21T05:37:55.008Z,102022.51
2019-01-21T05:41:08.280Z,102018.69
2019-01-21T05:44:18.566Z,102022.97
2019-01-21T05:47:32.210Z,102033.61
2019-01-21T05:50:47.130Z,102038.84
2019-01-21T05:53:33.280Z,102036.17
2019-01-21T05:56:52.447Z,102038.73
2019-01-21T05:59:59.234Z,102032.24
2019-01-21T06:03:13.971Z,102029.81
2019-01-21T06:06:22.890Z,102018.53
2019-01-21T06:09:25.811Z,102022.73
2019-01-21T06:12:27.757Z,102019.92
2019-01-21T06:15:30.558Z,102023.53
2019-01-21T06:18:25.960Z,102019.53
2019-01-21T06:21:34.825Z,102026.83
2019-01-21T06:24:39.625Z,102037.34
2019-01-21T06:27:50.704Z,102039.86
2019-01-21T06:30:42.226Z,102031.17
2019-01-21T06:33:38.204Z,102037.94
2019-01-21T06:36:17.167Z,102039.19
2019-01-21T06:39:16.318Z,102032.36
2019-01-21T06:42:15.507Z,102029.73
2019-01-21T06:44:58.175Z,102041.44
2019-01-21T06:48:03.712Z,102046.70
2019-01-21T06:51:17.470Z,102040.72
2019-01-21T06:54:34.665Z,102031.77
2019-01-21T06:57:59.582Z,102025.45
2019-01-21T07:01:08.341Z,102013.61
2019-01-21T07:04:23.435Z,102008.07
2019-01-21T07:07:19.367Z,101995.69
2019-01-21T07:09:59.592Z,101986.41
2019-01-21T07:13:04.595Z,101979.52
2019-01-21T07:16:22.387Z,101989.58
2019-01-21T07:19:47.558Z,101994.43
2019-01-21T07:22:38.930Z,101991.87
2019-01-21T07:26:13.134Z,101998.25
2019-01-21T07:29:05.634Z,101999.41
2019-01-21T07:31:53.083Z,101996.17
2019-01-21T07:34:47.816Z,101998.01
2019-01-21T07:37:39.043Z,101994.95
2019-01-21T07:41:19.863Z,102000.30
2019-01-21T07:44:25.162Z,102003.04
2019-01-21T07:47:29.895Z,102006.23
2019-01-21T07:50:45.730Z,102013.08
2019-01-21T07:53:48.330Z,102007.45
2019-01-21T07:56:55.260Z,102014.23
2019-01-21T07:59:54.582Z,102016.27
2019-01-21T08:03:01.117Z,102018.20
2019-01-21T08:05:43.381Z,102009.52
2019-01-21T08:08:49.388Z,102010.09
2019-01-21T08:11:47.413Z,102017.72
2019-01-21T08:14:30.579Z,102017.59
2019-01-21T08:17:38.158Z,102012.92
2019-01-21T08:20:28.266Z,102008.72
2019-01-21T08:23:37.600Z,102005.92
2019-01-21T08:27:08.836Z,102007.45
2019-01-21T08:30:20.755Z,102005.34
2019-01-21T08:33:14.338Z,101995.73
2019-01-21T08:36:31.018Z,102001.90
2019-01-21T08:39:48.695Z,102006.61
2019-01-21T08:43:19.961Z,101992.32
2019-01-21T08:46:48.234Z,101984.01
2019-01-21T08:50:01.239Z,101981.67
2019-01-21T08:53:08.599Z,101976.20
2019-01-21T08:56:15.010Z,101988.27
2019-01-21T08:59:15.077Z,102002.11
2019-01-21T09:02:21.112Z,101988.04
2019-01-21T09:05:45.102Z,101986.84
2019-01-21T09:08:53.333Z,101987.22
2019-01-21T09:12:11.397Z,101985.39
2019-01-21T09:15:03.946Z,101993.13
2019-01-21T09:18:11.727Z,101989.72
2019-01-21T09:21:15.099Z,101979.83
2019-01-21T09:24:23.719Z,101981.73
2019-01-21T09:27:30.110Z,101977.23
2019-01-21T09:30:35.402Z,101966.91
2019-01-21T09:33:43.364Z,101976.70
2019-01-21T09:36:41.370Z,101970.03
2019-01-21T09:39:43.606Z,101973.56
2019-01-21T09:42:47.794Z,101978.23
2019-01-21T09:45:59.921Z,101976.27
2019-01-21T09:48:27.446Z,101982.64
2019-01-21T09:51:00.938Z,101974.02
2019-01-21T09:53:30.199Z,101973.91
2019-01-21T09:55:59.654Z,101972.86
2019-01-21T09:58:30.936Z,101988.72
2019-01-21T10:01:00.206Z,102007.52
2019-01-21T10:03:30.121Z,101983.77
2019-01-21T10:06:06.068Z,101969.63
2019-01-21T10:08:47.163Z,101975.09
2019-01-21T10:11:58.208Z,101956.42
2019-01-21T10:15:02.821Z,101947.30
2019-01-21T10:18:08.931Z,101937.06
2019-01-21T10:21:09.161Z,101938.33
2019-01-21T10:24:20.836Z,101929.33
2019-01-21T10:27:55.329Z,101932.30
2019-01-21T10:30:35.110Z,101928.49
2019-01-21T10:33:38.016Z,101923.05
2019-01-21T10:36:43.082Z,101921.72
2019-01-21T10:39:34.697Z,101918.45
2019-01-21T10:42:34.457Z,101914.23
2019-01-21T10:45:26.872Z,101915.37
2019-01-21T10:48:08.388Z,101914.72
2019-01-21T10:51:08.955Z,101902.88
2019-01-21T10:54:20.762Z,101905.42
2019-01-21T10:57:09.534Z,101909.27
2019-01-21T11:00:27.774Z,101900.47
2019-01-21T11:03:13.573Z,101890.75
2019-01-21T11:06:18.245Z,101892.56
2019-01-21T11:09:13.748Z,101888.16
2019-01-21T11:12:30.172Z,101882.45
2019-01-21T11:15:13.597Z,101876.14
2019-01-21T11:17:57.908Z,101880.70
2019-01-21T11:20:55.014Z,101869.28
2019-01-21T11:23:45.558Z,101858.69
2019-01-21T11:26:44.521Z,101858.19
2019-01-21T11:29:25.536Z,101859.50
2019-01-21T11:32:17.603Z,101858.60
2019-01-21T11:35:22.026Z,101856.21
2019-01-21T11:38:16.105Z,101857.22
2019-01-21T11:41:38.540Z,101853.81
2019-01-21T11:44:40.425Z,101860.14
2019-01-21T11:47:34.562Z,101844.60
2019-01-21T11:50:41.794Z,101849.58
2019-01-21T11:53:45.298Z,101857.50
2019-01-21T11:56:27.180Z,101856.13
2019-01-21T11:59:13.240Z,101858.24
2019-01-21T12:02:11.245Z,101854.41
2019-01-21T12:05:36.407Z,101855.34
2019-01-21T12:08:52.026Z,101846.33
2019-01-21T12:11:46.647Z,101837.08
2019-01-21T12:15:05.830Z,101833.31
2019-01-21T12:18:25.072Z,101825.02
2019-01-21T12:21:34.986Z,101821.92
2019-01-21T12:24:26.865Z,101808.28
2019-01-21T12:27:46.133Z,101808.48
2019-01-21T12:30:26.939Z,101804.28
2019-01-21T12:33:08.562Z,101806.80
2019-01-21T12:36:07.289Z,101800.13
2019-01-21T12:39:06.869Z,101798.05
2019-01-21T12:41:56.432Z,101810.62
2019-01-21T12:45:15.877Z,101801.39
2019-01-21T12:47:54.160Z,101801.09
2019-01-21T12:51:01.358Z,101793.75
2019-01-21T12:54:07.558Z,101802.59
2019-01-21T12:57:15.074Z,101800.00
2019-01-21T12:59:54.444Z,101799.49
2019-01-21T13:02:30.811Z,101785.95
2019-01-21T13:05:32.547Z,101783.45
2019-01-21T13:08:16.381Z,101777.74
2019-01-21T13:11:22.160Z,101775.34
2019-01-21T13:14:23.484Z,101770.23
2019-01-21T13:17:22.134Z,101768.13
2019-01-21T13:20:30.748Z,101775.37
2019-01-21T13:23:13.345Z,101768.20
2019-01-21T13:26:19.027Z,101764.46
2019-01-21T13:29:15.192Z,101758.15
2019-01-21T13:32:07.374Z,101760.55
2019-01-21T13:35:13.092Z,101750.67
2019-01-21T13:38:10.384Z,101753.67
2019-01-21T13:41:14.452Z,101757.11
2019-01-21T13:44:39.614Z,101754.61
2019-01-21T13:47:52.455Z,101750.02
2019-01-21T13:50:58.316Z,101750.06
2019-01-21T13:54:07.834Z,101747.53
2019-01-21T13:56:58.142Z,101743.75
2019-01-21T14:00:03.778Z,101731.05
2019-01-21T14:02:41.678Z,101735.22
2019-01-21T14:05:31.930Z,101726.28
2019-01-21T14:08:16.338Z,101724.11
2019-01-21T14:11:16.884Z,101726.73
2019-01-21T14:14:10.107Z,101727.96
2019-01-21T14:16:54.898Z,101732.27
2019-01-21T14:19:34.891Z,101729.76
2019-01-21T14:22:49.428Z,101731.02
2019-01-21T14:26:10.531Z,101729.70
2019-01-21T14:29:11.248Z,101733.03
2019-01-21T14:32:38.998Z,101734.20
2019-01-21T14:35:36.229Z,101733.36
2019-01-21T14:38:35.481Z,101735.73
2019-01-21T14:41:20.910Z,101728.48
2019-01-21T14:44:43.269Z,101725.91
2019-01-21T14:47:46.652Z,101733.43
2019-01-21T14:50:39.363Z,101726.59
2019-01-21T14:53:18.390Z,101728.95
2019-01-21T14:55:58.573Z,101716.62
2019-01-21T14:58:58.893Z,101717.41
2019-01-21T15:01:59.087Z,101713.86
2019-01-21T15:05:10.470Z,101713.33
2019-01-21T15:08:01.022Z,101713.98
2019-01-21T15:11:09.742Z,101711.23
2019-01-21T15:14:22.457Z,101719.01
2019-01-21T15:17:03.483Z,101718.75
2019-01-21T15:19:50.509Z,101710.14
2019-01-21T15:22:42.387Z,101712.55
2019-01-21T15:25:36.491Z,101711.08
2019-01-21T15:28:43.090Z,101706.73
2019-01-21T15:31:47.840Z,101705.02
2019-01-21T15:34:56.864Z,101699.86
2019-01-21T15:37:50.639Z,101711.02
2019-01-21T15:41:05.442Z,101702.03
2019-01-21T15:44:12.166Z,101704.85
2019-01-21T15:47:18.107Z,101707.58
2019-01-21T15:50:06.673Z,101714.18
2019-01-21T15:53:16.781Z,101710.27
2019-01-21T15:56:09.817Z,101714.39
2019-01-21T15:59:01.188Z,101712.14
2019-01-21T16:01:53.917Z,101714.52
2019-01-21T16:04:35.313Z,101715.67
2019-01-21T16:07:37.243Z,101721.45
2019-01-21T16:10:49.171Z,101716.72
2019-01-21T16:13:42.354Z,101715.87
2019-01-21T16:16:55.389Z,101715.73
2019-01-21T16:19:28.175Z,101714.02
2019-01-21T16:22:26.987Z,101717.61
2019-01-21T16:25:01.484Z,101717.43
2019-01-21T16:28:02.589Z,101720.09
2019-01-21T16:30:41.769Z,101719.50
2019-01-21T16:33:40.318Z,101712.98
2019-01-21T16:36:29.742Z,101707.00
2019-01-21T16:39:44.961Z,101707.25
2019-01-21T16:42:15.675Z,101711.30
2019-01-21T16:44:46.776Z,101704.98
2019-01-21T16:47:15.952Z,101707.01
2019-01-21T16:49:45.023Z,101705.31
2019-01-21T16:52:14.037Z,101702.72
2019-01-21T16:54:43.101Z,101706.85
2019-01-21T16:57:12.117Z,101697.17
2019-01-21T16:59:41.182Z,101704.18
2019-01-21T17:02:10.246Z,101708.31
2019-01-21T17:04:39.273Z,101702.84
2019-01-21T17:07:08.343Z,101696.97
2019-01-21T17:09:37.724Z,101702.40
2019-01-21T17:12:06.769Z,101696.08
2019-01-21T17:14:35.833Z,101700.62
2019-01-21T17:17:04.854Z,101695.96
2019-01-21T17:19:33.926Z,101698.80
2019-01-21T17:22:02.992Z,101696.69
2019-01-21T17:24:32.026Z,101693.69
2019-01-21T17:27:01.105Z,101689.44
2019-01-21T17:29:30.133Z,101692.31
2019-01-21T17:31:59.152Z,101687.98
2019-01-21T17:34:28.220Z,101682.08
2019-01-21T17:36:57.525Z,101686.16
2019-01-21T17:39:26.587Z,101686.97
2019-01-21T17:41:55.604Z,101677.34
2019-01-21T17:44:24.662Z,101686.08
2019-01-21T17:46:53.834Z,101681.02
2019-01-21T17:49:22.890Z,101680.08
2019-01-21T17:51:52.288Z,101682.19
2019-01-21T17:54:21.314Z,101675.14
2019-01-21T17:56:50.379Z,101690.29
2019-01-21T17:59:19.397Z,101681.99
2019-01-21T18:01:48.498Z,101676.70
2019-01-21T18:04:17.647Z,101672.31
2019-01-21T18:06:46.696Z,101668.19
2019-01-21T18:09:15.769Z,101671.14
2019-01-21T18:11:44.808Z,101669.97
2019-01-21T18:14:14.077Z,101667.45
2019-01-21T18:16:43.125Z,101662.59
2019-01-21T18:19:13.563Z,101664.30
2019-01-21T18:21:42.991Z,101665.27
2019-01-21T18:24:12.015Z,101660.77
2019-01-21T18:26:41.095Z,101666.31
2019-01-21T18:29:10.102Z,101669.70
2019-01-21T18:31:39.165Z,101673.92
2019-01-21T18:34:08.190Z,101675.70
2019-01-21T18:36:37.218Z,101675.41
2019-01-21T18:39:11.821Z,101671.31
2019-01-21T18:41:40.972Z,101666.77
2019-01-21T18:44:09.983Z,101671.31
2019-01-21T18:46:38.999Z,101673.75
2019-01-21T18:49:08.078Z,101667.35
2019-01-21T18:51:37.082Z,101671.60
2019-01-21T18:54:06.165Z,101666.62
2019-01-21T18:56:35.271Z,101670.87
2019-01-21T18:59:04.511Z,101672.05
2019-01-21T19:01:33.615Z,101675.92
2019-01-21T19:04:02.648Z,101677.63
2019-01-21T19:06:31.707Z,101670.83
2019-01-21T19:09:00.771Z,101675.89
2019-01-21T19:11:29.844Z,101662.77
2019-01-21T19:13:58.867Z,101663.22
2019-01-21T19:16:27.894Z,101663.22
2019-01-21T19:18:56.967Z,101657.31
2019-01-21T19:21:25.990Z,101662.33
2019-01-21T19:23:55.049Z,101658.93
2019-01-21T19:26:24.070Z,101658.04
2019-01-21T19:28:53.154Z,101657.97
2019-01-21T19:31:22.219Z,101654.20
2019-01-21T19:33:51.245Z,101656.19
2019-01-21T19:36:20.320Z,101663.03
2019-01-21T19:38:49.332Z,101658.73
2019-01-21T19:41:18.439Z,101657.52
2019-01-21T19:43:47.461Z,101653.31
2019-01-21T19:46:16.816Z,101654.37
2019-01-21T19:48:45.872Z,101659.31
2019-01-21T19:51:14.899Z,101660.49
2019-01-21T19:53:43.958Z,101658.38
2019-01-21T19:56:13.028Z,101660.16
2019-01-21T19:58:42.121Z,101659.84
2019-01-21T20:01:12.062Z,101665.27
2019-01-21T20:03:41.086Z,101659.55
2019-01-21T20:06:10.194Z,101656.92
2019-01-21T20:08:39.214Z,101652.05
2019-01-21T20:11:08.282Z,101647.41
2019-01-21T20:13:37.313Z,101655.90
2019-01-21T20:16:06.472Z,101653.91
2019-01-21T20:18:35.498Z,101645.71
2019-01-21T20:21:04.656Z,101650.30
2019-01-21T20:23:33.687Z,101647.56
2019-01-21T20:26:02.706Z,101647.97
2019-01-21T20:28:31.718Z,101646.34
2019-01-21T20:31:00.793Z,101647.34
2019-01-21T20:33:29.829Z,101644.91
2019-01-21T20:35:58.891Z,101646.97
2019-01-21T20:38:27.946Z,101643.20
2019-01-21T20:40:56.991Z,101639.21
2019-01-21T20:43:26.062Z,101644.71
2019-01-21T20:45:55.128Z,101643.86
2019-01-21T20:48:24.186Z,101647.27
2019-01-21T20:50:53.288Z,101638.47
2019-01-21T20:53:22.343Z,101638.57
2019-01-21T20:55:51.417Z,101632.63
2019-01-21T20:58:20.485Z,101634.88
2019-01-21T21:00:49.421Z,101626.34
2019-01-21T21:03:18.434Z,101630.99
2019-01-21T21:05:47.528Z,101627.27
2019-01-21T21:08:16.554Z,101626.89
2019-01-21T21:10:45.580Z,101634.06
2019-01-21T21:13:14.656Z,101634.13
2019-01-21T21:15:43.728Z,101623.70
2019-01-21T21:18:12.801Z,101626.63
2019-01-21T21:20:41.850Z,101637.15
2019-01-21T21:23:10.888Z,101636.81
2019-01-21T21:25:40.254Z,101638.55
2019-01-21T21:28:09.265Z,101636.06
2019-01-21T21:30:38.294Z,101636.98
2019-01-21T21:33:07.751Z,101633.69
2019-01-21T21:35:36.850Z,101631.31
2019-01-21T21:38:05.997Z,101636.00
2019-01-21T21:40:35.055Z,101628.95
2019-01-21T21:43:04.243Z,101619.44
2019-01-21T21:45:33.341Z,101623.25
2019-01-21T21:48:02.356Z,101619.09
2019-01-21T21:50:32.915Z,101625.89
2019-01-21T21:53:01.951Z,101618.41
2019-01-21T21:55:31.070Z,101620.48
2019-01-21T21:58:00.151Z,101614.67
2019-01-21T22:00:29.880Z,101616.08
2019-01-21T22:02:58.935Z,101612.24
2019-01-21T22:05:27.989Z,101614.50
2019-01-21T22:07:57.076Z,101606.27
2019-01-21T22:10:27.992Z,101607.14
2019-01-21T22:12:57.021Z,101603.75
2019-01-21T22:15:26.427Z,101600.38
2019-01-21T22:17:55.482Z,101602.11
2019-01-21T22:20:25.191Z,101605.67
2019-01-21T22:22:54.259Z,101598.47
2019-01-21T22:25:23.278Z,101594.38
2019-01-21T22:27:52.589Z,101598.97
2019-01-21T22:30:30.576Z,101593.59
2019-01-21T22:32:59.602Z,101590.52
2019-01-21T22:35:29.061Z,101591.48
2019-01-21T22:37:58.143Z,101591.14
2019-01-21T22:40:27.175Z,101585.61
2019-01-21T22:42:56.243Z,101584.73
2019-01-21T22:45:25.277Z,101580.25
2019-01-21T22:47:54.343Z,101578.09
2019-01-21T22:50:23.379Z,101574.93
2019-01-21T22:52:52.452Z,101572.39
2019-01-21T22:55:21.461Z,101567.85
2019-01-21T22:57:50.509Z,101572.77
2019-01-21T23:00:39.517Z,101568.61
2019-01-21T23:03:09.174Z,101569.48
2019-01-21T23:05:38.322Z,101568.17
2019-01-21T23:08:07.371Z,101569.95
2019-01-21T23:10:36.670Z,101570.37
2019-01-21T23:13:05.795Z,101564.08
2019-01-21T23:15:34.971Z,101563.64
2019-01-21T23:18:04.516Z,101565.72
2019-01-21T23:20:33.644Z,101558.52
2019-01-21T23:23:02.715Z,101565.25
2019-01-21T23:25:32.114Z,101562.61
2019-01-21T23:28:01.127Z,101557.91
2019-01-21T23:30:30.223Z,101558.34
2019-01-21T23:32:59.235Z,101563.52
2019-01-21T23:35:28.301Z,101554.28
2019-01-21T23:37:57.244Z,101547.61
2019-01-21T23:40:26.263Z,101547.55
2019-01-21T23:42:55.318Z,101544.01
2019-01-21T23:45:24.396Z,101543.16
2019-01-21T23:47:53.412Z,101537.78
2019-01-21T23:50:22.811Z,101533.02
2019-01-21T23:52:55.924Z,101533.95
2019-01-21T23:55:22.959Z,101527.34
2019-01-21T23:57:52.022Z,101526.58
